Time;durP1;ratioP1;P1;durP2;ratioP2;P2;SDS_P1;SDS_P2;PMS_P1;PMS_P2;Temp;Humidity;BMP_temperature;BMP_pressure;BME280_temperature;BME280_humidity;BME280_pressure;Samples;Min_cycle;Max_cycle;Signal;HPM_P1;HPM_P2
2022/11/16 00:04:10;;;;;;;12.10;8.87;;;;;;;12.62;57.91;98417.66;10356820;28;20613;-72
2022/11/16 00:09:21;;;;;;;11.73;9.20;;;;;;;12.97;57.15;98431.13;10375462;28;20237;-73
2022/11/16 00:14:25;;;;;;;12.13;9.80;;;;;;;12.88;56.54;98444.06;10365536;28;21109;-73
2022/11/16 00:19:28;;;;;;;10.90;9.47;;;;;;;13.05;56.32;98432.66;10369839;28;20766;-73
2022/11/16 00:24:29;;;;;;;13.43;10.50;;;;;;;12.38;57.62;98487.34;10366236;28;20240;-73
2022/11/16 00:29:31;;;;;;;15.67;12.03;;;;;;;12.17;57.44;98473.38;10368564;28;20241;-73
2022/11/16 00:34:33;;;;;;;13.00;10.43;;;;;;;13.02;55.98;98420.50;10373435;28;20241;-73
2022/11/16 00:39:34;;;;;;;12.47;11.03;;;;;;;12.47;56.85;98467.22;10368687;28;20256;-75
2022/11/16 00:44:36;;;;;;;14.00;11.43;;;;;;;11.36;59.50;98486.03;10371342;28;20284;-75
2022/11/16 00:49:37;;;;;;;13.33;10.37;;;;;;;13.01;56.50;98409.97;10367818;28;20229;-74
2022/11/16 00:54:39;;;;;;;13.17;11.03;;;;;;;11.95;59.50;98445.44;10366604;28;20225;-73
2022/11/16 00:59:41;;;;;;;13.17;11.00;;;;;;;11.69;59.02;98454.59;10364612;28;20283;-75
2022/11/16 01:04:42;;;;;;;12.00;10.73;;;;;;;11.07;61.37;98495.59;10367034;28;20241;-72
2022/11/16 01:09:44;;;;;;;12.90;10.30;;;;;;;10.76;61.98;98475.03;10370792;28;20233;-72
2022/11/16 01:14:46;;;;;;;13.37;10.87;;;;;;;11.97;59.42;98408.47;10369743;28;20795;-75
2022/11/16 01:19:48;;;;;;;12.40;10.87;;;;;;;12.51;57.71;98371.81;10373269;28;20255;-75
2022/11/16 01:24:50;;;;;;;12.80;10.73;;;;;;;12.31;57.69;98395.41;10365229;28;20236;-73
2022/11/16 01:29:52;;;;;;;13.13;11.10;;;;;;;13.07;57.45;98382.19;10370832;28;20238;-75
2022/11/16 01:34:53;;;;;;;12.83;10.97;;;;;;;12.22;58.25;98416.38;10367986;28;20607;-72
2022/11/16 01:39:55;;;;;;;14.07;11.53;;;;;;;11.61;59.42;98445.00;10362522;28;20597;-73
2022/11/16 01:45:32;;;;;;;14.77;11.53;;;;;;;10.92;61.42;98463.78;10368475;28;20237;-75
2022/11/16 01:50:35;;;;;;;14.67;12.30;;;;;;;11.96;60.11;98410.34;10349482;28;20240;-75
2022/11/16 01:55:39;;;;;;;14.80;12.80;;;;;;;11.84;60.00;98419.38;10366995;28;20255;-73
2022/11/16 02:00:40;;;;;;;15.10;13.00;;;;;;;12.23;59.40;98393.88;10364036;28;20283;-75
2022/11/16 02:06:14;;;;;;;18.27;12.00;;;;;;;9.16;65.75;98412.41;10360125;28;20233;-75
2022/11/16 02:11:28;;;;;;;14.97;12.37;;;;;;;10.55;62.09;98481.53;10339243;28;20237;-73
2022/11/16 02:16:50;;;;;;;13.13;10.53;;;;;;;9.62;64.74;98454.19;10359461;28;20234;-73
2022/11/16 02:22:01;;;;;;;12.30;10.30;;;;;;;10.40;63.17;98474.63;10368037;28;20235;-73
2022/11/16 02:27:17;;;;;;;13.73;10.93;;;;;;;10.98;62.20;98438.81;10366560;28;20237;-73
2022/11/16 02:32:48;;;;;;;11.73;9.37;;;;;;;10.42;62.61;98439.66;10367872;28;20257;-73
2022/11/16 02:37:57;;;;;;;10.80;9.70;;;;;;;11.17;61.65;98410.22;10360741;28;20741;-74
2022/11/16 02:43:12;;;;;;;11.43;9.00;;;;;;;11.15;61.76;98374.81;10366316;28;20717;-73
2022/11/16 02:48:20;;;;;;;11.50;8.80;;;;;;;11.28;62.10;98370.38;10359967;28;20892;-73
2022/11/16 02:53:24;;;;;;;10.07;8.97;;;;;;;10.31;63.99;98465.22;10358859;28;20243;-73
2022/11/16 02:58:26;;;;;;;11.13;9.43;;;;;;;10.85;62.63;98415.69;10365910;28;20245;-74
2022/11/16 03:03:39;;;;;;;13.17;8.90;;;;;;;9.80;65.65;98464.19;10360561;28;20689;-73
2022/11/16 03:08:51;;;;;;;13.33;9.80;;;;;;;10.49;63.78;98443.91;10361283;28;20229;-74
2022/11/16 03:13:58;;;;;;;14.03;8.97;;;;;;;9.87;65.38;98456.19;10359372;28;20226;-73
2022/11/16 03:19:04;;;;;;;14.47;11.30;;;;;;;9.77;65.06;98451.28;10358963;28;20741;-74
2022/11/16 03:24:07;;;;;;;13.53;10.63;;;;;;;9.89;65.06;98430.09;10362512;28;20608;-73
2022/11/16 03:29:28;;;;;;;11.10;8.87;;;;;;;10.19;65.48;98411.63;10363077;28;20229;-73
2022/11/16 03:34:33;;;;;;;13.23;10.97;;;;;;;11.03;62.87;98374.72;10366891;28;20236;-73
2022/11/16 03:39:38;;;;;;;15.30;10.73;;;;;;;10.38;64.45;98411.69;10364888;28;20240;-73
2022/11/16 03:44:43;;;;;;;12.07;9.87;;;;;;;9.94;65.86;98440.97;10365492;28;20720;-73
2022/11/16 03:49:46;;;;;;;11.80;10.10;;;;;;;10.51;64.62;98375.00;10373602;28;20241;-74
2022/11/16 03:54:48;;;;;;;13.87;10.67;;;;;;;10.22;64.29;98453.94;10371314;28;20225;-73
2022/11/16 03:59:49;;;;;;;15.10;11.63;;;;;;;10.08;65.07;98457.75;10368022;28;20764;-73
2022/11/16 04:26:13;;;;;;;17.30;11.77;;;;;;;10.21;63.50;98438.97;10367524;28;20323;-74
2022/11/16 04:42:13;;;;;;;16.90;11.30;;;;;;;10.63;62.71;98449.16;10371567;28;20227;-73
2022/11/16 04:47:15;;;;;;;14.07;11.40;;;;;;;11.56;61.42;98452.88;10365970;28;20717;-73
2022/11/16 04:52:16;;;;;;;16.40;12.10;;;;;;;11.53;60.67;98469.41;10371778;28;20279;-73
2022/11/16 04:57:18;;;;;;;14.83;11.33;;;;;;;10.66;62.82;98481.66;10362186;28;20313;-73
2022/11/16 05:02:20;;;;;;;15.23;11.37;;;;;;;11.05;61.76;98463.69;10363691;28;20228;-73
2022/11/16 05:07:21;;;;;;;15.83;11.63;;;;;;;10.62;62.65;98476.97;10361263;28;20236;-73
2022/11/16 05:12:25;;;;;;;20.37;11.30;;;;;;;10.69;62.29;98473.19;10366947;28;20225;-74
2022/11/16 05:17:27;;;;;;;14.50;11.20;;;;;;;11.01;60.74;98473.16;10360872;28;20884;-72
2022/11/16 05:22:29;;;;;;;15.37;11.20;;;;;;;11.13;61.84;98491.19;10367786;28;20268;-72
2022/11/16 05:27:31;;;;;;;15.80;11.63;;;;;;;10.43;63.20;98517.00;10367005;28;20241;-72
2022/11/16 05:32:33;;;;;;;15.83;11.67;;;;;;;11.67;60.91;98481.63;10365626;28;20236;-73
2022/11/16 05:37:34;;;;;;;15.60;13.07;;;;;;;11.17;61.75;98503.09;10364324;28;20237;-72
2022/11/16 05:42:36;;;;;;;12.47;10.63;;;;;;;10.23;64.70;98553.72;10370358;28;20236;-72
2022/11/16 05:47:38;;;;;;;14.03;11.87;;;;;;;10.22;63.90;98554.72;10363640;28;20740;-72
2022/11/16 05:52:39;;;;;;;17.40;11.77;;;;;;;10.16;65.08;98545.72;10368750;28;20229;-72
2022/11/16 05:57:41;;;;;;;17.77;10.97;;;;;;;9.53;65.87;98549.75;10361592;28;20248;-74
2022/11/16 06:02:42;;;;;;;14.50;11.37;;;;;;;10.26;65.25;98526.53;10362739;28;20238;-72
2022/11/16 06:07:44;;;;;;;15.17;12.47;;;;;;;11.32;61.81;98486.69;10368729;28;20251;-73
2022/11/16 06:12:46;;;;;;;14.43;11.73;;;;;;;10.79;63.88;98498.69;10392696;28;20248;-71
2022/11/16 06:17:47;;;;;;;18.60;12.50;;;;;;;9.88;63.73;98535.31;10370725;28;20255;-74
2022/11/16 06:22:49;;;;;;;14.10;11.03;;;;;;;9.94;64.90;98579.91;10363982;28;20233;-72
2022/11/16 06:27:51;;;;;;;13.73;10.63;;;;;;;10.97;62.19;98514.00;10369158;28;20237;-72
2022/11/16 06:32:52;;;;;;;13.77;10.53;;;;;;;10.43;63.89;98533.03;10357664;28;20291;-72
2022/11/16 06:37:54;;;;;;;15.30;11.77;;;;;;;11.00;62.54;98524.25;10360420;28;20236;-72
2022/11/16 06:42:56;;;;;;;14.67;11.63;;;;;;;10.65;62.53;98536.19;10360939;28;21127;-71
2022/11/16 06:47:57;;;;;;;14.77;12.13;;;;;;;11.34;61.13;98555.09;10357666;28;20736;-71
2022/11/16 06:53:02;;;;;;;15.50;12.07;;;;;;;12.03;59.02;98567.63;10353498;28;20240;-73
2022/11/16 06:58:03;;;;;;;17.43;12.90;;;;;;;10.75;61.12;98577.72;10361716;28;20240;-76
2022/11/16 07:03:05;;;;;;;14.73;12.40;;;;;;;12.28;58.10;98597.03;10341421;28;20236;-71
2022/11/16 07:08:07;;;;;;;19.53;12.83;;;;;;;12.73;57.30;98618.97;10359692;28;20256;-72
2022/11/16 07:13:08;;;;;;;15.80;11.97;;;;;;;10.95;61.20;98631.13;10334009;28;20744;-72
2022/11/16 07:18:10;;;;;;;18.17;12.43;;;;;;;11.72;59.90;98613.06;10354820;28;20268;-73
2022/11/16 07:23:12;;;;;;;13.60;11.03;;;;;;;10.96;62.04;98644.31;10349378;28;20213;-72
2022/11/16 07:28:14;;;;;;;15.90;11.43;;;;;;;11.59;60.81;98613.16;10332312;28;20618;-72
2022/11/16 07:33:16;;;;;;;17.83;11.23;;;;;;;12.08;59.34;98624.91;10352667;28;20239;-74
2022/11/16 07:38:18;;;;;;;16.67;10.80;;;;;;;10.67;61.99;98649.16;10332938;28;20236;-75
2022/11/16 07:43:20;;;;;;;14.27;10.03;;;;;;;12.10;59.51;98633.53;10338828;28;20208;-75
2022/11/16 07:48:21;;;;;;;11.07;8.50;;;;;;;11.65;59.47;98619.56;10337947;28;20301;-74
2022/11/16 07:53:23;;;;;;;10.67;8.63;;;;;;;12.03;59.66;98648.03;10360994;28;20225;-75
2022/11/16 07:58:27;;;;;;;11.27;7.70;;;;;;;10.74;62.53;98664.38;10367293;28;20238;-73
2022/11/16 08:03:28;;;;;;;8.40;6.80;;;;;;;11.56;60.78;98619.78;10365101;28;20357;-73
2022/11/16 08:08:30;;;;;;;9.53;7.43;;;;;;;11.84;59.24;98617.72;10368398;28;20239;-73
2022/11/16 08:13:34;;;;;;;11.40;7.80;;;;;;;11.86;59.75;98629.88;10363584;28;20749;-72
2022/11/16 08:18:37;;;;;;;10.03;6.83;;;;;;;11.54;60.87;98642.47;10365701;28;20229;-75
2022/11/16 08:23:39;;;;;;;8.33;6.50;;;;;;;11.97;59.87;98641.72;10363922;28;20236;-74
2022/11/16 08:28:43;;;;;;;7.90;7.03;;;;;;;12.01;58.89;98642.91;10369898;28;20240;-73
2022/11/16 08:33:44;;;;;;;8.23;5.57;;;;;;;10.43;63.67;98690.00;10364798;28;20233;-72
2022/11/16 08:38:48;;;;;;;8.07;6.33;;;;;;;11.56;60.84;98613.63;10365153;28;20283;-72
2022/11/16 08:43:49;;;;;;;8.37;5.90;;;;;;;11.87;59.89;98606.56;10366182;28;20229;-76
2022/11/16 08:48:55;;;;;;;9.33;6.33;;;;;;;12.32;58.85;98643.84;10369264;28;20241;-72
2022/11/16 08:53:58;;;;;;;8.67;6.03;;;;;;;12.83;58.14;98661.41;10361369;28;20256;-73
2022/11/16 08:58:59;;;;;;;7.53;5.60;;;;;;;12.40;57.40;98648.91;10365662;28;20283;-72
2022/11/16 09:04:01;;;;;;;6.00;5.40;;;;;;;12.35;57.49;98638.84;10365978;28;20266;-72
2022/11/16 09:09:03;;;;;;;6.27;4.60;;;;;;;10.64;61.41;98681.69;10374052;28;20236;-72
2022/11/16 09:14:05;;;;;;;7.67;5.90;;;;;;;11.75;59.84;98644.00;10360816;28;20288;-74
2022/11/16 09:19:06;;;;;;;7.47;5.43;;;;;;;12.13;57.79;98641.16;10362816;28;20221;-74
2022/11/16 09:24:10;;;;;;;9.00;5.40;;;;;;;11.12;60.16;98656.38;10354588;28;20611;-73
2022/11/16 09:29:14;;;;;;;11.10;7.00;;;;;;;11.68;60.06;98641.38;10360729;28;20233;-71
2022/11/16 09:34:15;;;;;;;7.93;6.50;;;;;;;12.41;58.95;98649.72;10356874;28;20584;-74
2022/11/16 09:39:17;;;;;;;10.70;6.70;;;;;;;12.17;59.01;98652.25;10359810;28;20780;-72
2022/11/16 09:44:43;;;;;;;7.03;5.00;;;;;;;13.53;56.65;98692.28;10358103;28;20283;-72
2022/11/16 09:49:51;;;;;;;8.13;4.87;;;;;;;13.26;57.28;98667.63;10349973;28;20240;-71
2022/11/16 09:54:56;;;;;;;5.90;4.10;;;;;;;12.99;57.98;98659.13;10362182;28;20229;-71
2022/11/16 10:00:03;;;;;;;7.90;3.70;;;;;;;13.45;57.03;98671.91;10349462;28;20317;-74
2022/11/16 10:05:32;;;;;;;6.47;4.57;;;;;;;12.80;56.64;98651.09;10352458;28;20229;-74
2022/11/16 10:10:49;;;;;;;5.10;2.60;;;;;;;12.79;53.89;98657.53;10360272;28;20236;-71
2022/11/16 10:16:04;;;;;;;5.87;2.40;;;;;;;13.27;53.68;98674.63;10360682;28;20206;-73
2022/11/16 10:21:41;;;;;;;4.43;2.53;;;;;;;12.83;54.87;98650.66;10356210;28;20233;-72
2022/11/16 10:27:24;;;;;;;5.37;2.40;;;;;;;13.67;53.71;98661.44;10346696;28;20663;-73
2022/11/16 10:32:48;;;;;;;3.73;2.30;;;;;;;13.08;54.34;98655.09;10337143;28;20216;-73
2022/11/16 10:37:51;;;;;;;4.60;2.60;;;;;;;11.97;55.23;98668.53;10354006;28;20225;-73
2022/11/16 10:43:14;;;;;;;4.10;2.63;;;;;;;13.07;54.13;98635.44;10356677;28;20237;-72
2022/11/16 10:48:43;;;;;;;3.57;2.30;;;;;;;13.26;53.54;98641.59;10360332;28;20241;-74
2022/11/16 10:53:45;;;;;;;5.60;3.00;;;;;;;13.54;53.56;98633.97;10358539;28;20237;-72
2022/11/16 10:58:51;;;;;;;3.93;2.47;;;;;;;13.39;53.48;98632.53;10355057;28;20240;-74
2022/11/16 11:06:10;;;;;;;3.13;2.47;;;;;;;10.94;59.36;98627.66;10472542;27;20308;-77
2022/11/16 11:16:40;;;;;;;2.80;2.23;;;;;;;12.05;56.94;98582.44;10473672;27;20819;-74
2022/11/16 11:21:42;;;;;;;4.47;1.80;;;;;;;11.50;57.84;98598.41;10474482;28;20784;-71
2022/11/16 11:26:52;;;;;;;4.07;2.20;;;;;;;11.21;58.01;98604.19;10480525;27;20272;-74
2022/11/16 11:31:59;;;;;;;4.83;2.30;;;;;;;12.59;56.12;98561.19;10475692;28;20242;-76
2022/11/16 11:37:02;;;;;;;4.20;2.90;;;;;;;11.89;56.41;98596.44;10476958;27;20265;-76
2022/11/16 11:42:20;;;;;;;4.30;2.50;;;;;;;11.05;57.29;98637.69;10461002;28;20779;-76
2022/11/16 11:47:59;;;;;;;3.63;2.00;;;;;;;11.86;55.49;98556.66;10479133;28;20287;-73
2022/11/16 11:53:01;;;;;;;4.23;2.47;;;;;;;12.05;54.60;98569.03;10470305;28;20238;-71
2022/11/16 11:58:04;;;;;;;4.57;2.50;;;;;;;12.71;54.84;98569.28;10447817;28;20727;-74
2022/11/16 12:03:24;;;;;;;2.77;2.20;;;;;;;12.12;54.92;98542.16;10452063;28;20306;-72
2022/11/16 12:08:38;;;;;;;4.27;2.20;;;;;;;12.57;54.08;98546.34;10475364;28;20236;-74
2022/11/16 12:13:56;;;;;;;5.43;2.30;;;;;;;12.82;53.59;98551.56;10457425;28;20285;-72
2022/11/16 12:19:25;;;;;;;4.37;2.30;;;;;;;11.67;55.07;98612.09;10449783;28;20235;-72
2022/11/16 12:24:49;;;;;;;7.90;3.97;;;;;;;12.90;53.90;98544.00;10421029;28;20237;-74
2022/11/16 12:30:08;;;;;;;4.90;2.60;;;;;;;12.65;52.21;98562.13;10448316;28;20281;-72
2022/11/16 12:35:44;;;;;;;5.87;3.47;;;;;;;11.67;54.03;98615.59;10441531;28;20236;-75
2022/11/16 12:41:24;;;;;;;4.00;2.20;;;;;;;11.45;53.16;98623.19;10446087;28;20330;-72
2022/11/16 12:46:49;;;;;;;5.40;2.63;;;;;;;12.43;52.10;98526.91;10449553;28;20758;-73
2022/11/16 12:52:03;;;;;;;5.33;2.77;;;;;;;12.27;52.86;98587.38;10443036;28;20721;-72
2022/11/16 12:57:19;;;;;;;4.73;2.80;;;;;;;13.31;51.42;98532.63;10448949;28;20232;-73
2022/11/16 13:02:40;;;;;;;10.27;6.67;;;;;;;13.86;50.95;98537.63;10407814;28;20291;-75
2022/11/16 13:07:46;;;;;;;5.40;2.00;;;;;;;12.64;53.34;98550.56;10420271;28;20248;-74
2022/11/16 13:12:52;;;;;;;4.40;2.30;;;;;;;12.29;54.25;98528.94;10401200;28;20240;-70
2022/11/16 13:18:18;;;;;;;3.37;2.33;;;;;;;13.02;52.07;98498.38;10398636;28;20315;-71
2022/11/16 13:23:38;;;;;;;6.50;2.40;;;;;;;12.82;51.77;98504.06;10403620;28;20235;-71
2022/11/16 13:28:44;;;;;;;4.30;1.73;;;;;;;11.92;51.63;98575.34;10405346;28;20282;-73
2022/11/16 13:33:49;;;;;;;4.47;2.63;;;;;;;13.64;49.66;98510.56;10404100;28;20916;-72
2022/11/16 13:38:52;;;;;;;4.30;2.23;;;;;;;13.04;49.80;98480.19;10401803;28;20239;-74
2022/11/16 13:43:54;;;;;;;7.17;3.30;;;;;;;11.85;51.72;98563.09;10399474;28;20236;-71
2022/11/16 13:48:55;;;;;;;3.80;2.10;;;;;;;12.36;52.47;98535.03;10403783;28;20240;-72
2022/11/16 13:53:57;;;;;;;5.43;2.43;;;;;;;12.96;51.92;98477.81;10399961;28;20266;-73
2022/11/16 13:59:28;;;;;;;4.57;2.50;;;;;;;12.22;52.32;98517.50;10422022;28;21024;-74
2022/11/16 14:04:56;;;;;;;3.37;2.00;;;;;;;11.97;52.52;98507.69;10409420;28;20288;-71
2022/11/16 14:09:59;;;;;;;4.17;2.10;;;;;;;12.07;52.28;98504.47;10395785;28;21769;-71
2022/11/16 14:15:12;;;;;;;3.10;1.97;;;;;;;12.43;52.13;98476.72;10399047;28;20236;-71
2022/11/16 14:20:15;;;;;;;4.63;2.33;;;;;;;11.93;51.35;98509.16;10394072;28;20228;-72
2022/11/16 14:26:04;;;;;;;3.77;2.10;;;;;;;11.72;51.41;98497.03;10404417;28;20232;-71
2022/11/16 14:31:11;;;;;;;4.93;2.80;;;;;;;12.53;50.81;98441.34;10361269;28;20236;-72
2022/11/16 14:36:13;;;;;;;5.27;2.73;;;;;;;12.72;50.65;98471.59;10409236;28;20298;-73
2022/11/16 14:41:21;;;;;;;6.00;2.83;;;;;;;12.71;50.58;98459.22;10406638;28;20609;-72
2022/11/16 14:46:31;;;;;;;3.67;2.50;;;;;;;13.63;48.38;98437.19;10392331;28;20615;-73
2022/11/16 14:51:37;;;;;;;5.33;2.50;;;;;;;12.30;50.99;98493.84;10469318;28;20227;-73
2022/11/16 14:56:58;;;;;;;7.83;3.20;;;;;;;12.98;49.77;98459.59;10480144;28;20231;-72
2022/11/16 15:02:11;;;;;;;6.23;3.07;;;;;;;12.58;50.11;98460.25;10477780;28;20575;-73
2022/11/16 15:07:15;;;;;;;4.97;2.80;;;;;;;12.60;50.17;98484.97;10487746;28;20754;-74
2022/11/16 15:17:44;;;;;;;6.00;2.30;;;;;;;13.03;49.57;98453.56;10459534;28;20606;-71
2022/11/16 15:22:54;;;;;;;5.43;2.20;;;;;;;12.73;50.33;98465.19;10449272;28;20243;-70
2022/11/16 15:27:58;;;;;;;7.83;3.20;;;;;;;13.34;49.36;98420.16;10461830;28;20256;-76
2022/11/16 15:33:08;;;;;;;4.87;3.23;;;;;;;12.49;50.47;98454.41;10452040;28;20223;-69
2022/11/16 15:38:20;;;;;;;3.57;2.50;;;;;;;12.68;50.60;98427.47;10447734;28;20235;-70
2022/11/16 15:43:31;;;;;;;7.67;3.40;;;;;;;13.21;49.39;98390.81;10448562;28;20242;-73
2022/11/16 15:48:39;;;;;;;7.73;3.60;;;;;;;12.73;50.32;98420.34;10444487;28;20258;-71
2022/11/16 15:53:45;;;;;;;3.80;2.40;;;;;;;12.91;50.12;98397.97;10451018;28;20920;-69
2022/11/16 15:58:48;;;;;;;3.60;2.53;;;;;;;12.84;50.59;98410.69;10465158;28;20900;-69
2022/11/16 16:04:05;;;;;;;6.83;2.80;;;;;;;12.90;50.40;98388.28;10472095;28;20235;-70
2022/11/16 16:09:16;;;;;;;52.40;42.37;;;;;;;12.94;50.56;98391.34;10457924;28;20250;-70
2022/11/16 16:14:27;;;;;;;40.00;28.47;;;;;;;13.10;50.14;98371.00;10479654;28;20231;-70
2022/11/16 16:19:42;;;;;;;36.57;23.17;;;;;;;12.77;50.10;98396.56;10482987;28;21309;-71
2022/11/16 16:24:45;;;;;;;11.80;7.60;;;;;;;12.47;50.95;98383.22;10498088;28;20918;-72
2022/11/16 16:29:49;;;;;;;10.43;6.90;;;;;;;12.85;50.79;98355.13;10484194;28;20288;-72
2022/11/16 16:34:51;;;;;;;7.40;4.00;;;;;;;11.93;51.99;98386.69;10472591;28;20646;-73
2022/11/16 16:39:53;;;;;;;10.57;7.07;;;;;;;12.64;50.74;98361.91;10486122;28;20232;-74
2022/11/16 16:44:58;;;;;;;12.97;6.80;;;;;;;11.88;51.47;98380.34;10490081;28;20237;-70
2022/11/16 16:50:00;;;;;;;11.83;5.97;;;;;;;12.24;51.66;98373.25;10483384;28;20278;-71
2022/11/16 16:55:02;;;;;;;7.83;3.83;;;;;;;11.73;53.12;98359.34;10486556;28;20306;-73
2022/11/16 17:00:04;;;;;;;6.73;3.17;;;;;;;11.54;53.25;98361.19;10477775;28;20589;-68
2022/11/16 17:05:06;;;;;;;6.50;3.63;;;;;;;12.39;51.70;98311.13;10456397;28;20696;-70
2022/11/16 17:10:08;;;;;;;8.10;3.83;;;;;;;12.19;51.13;98331.03;10483122;28;20258;-69
2022/11/16 17:15:09;;;;;;;8.53;4.17;;;;;;;11.63;52.35;98341.13;10471886;28;21016;-69
2022/11/16 17:20:18;;;;;;;6.93;4.20;;;;;;;11.74;52.01;98343.03;10495621;28;20261;-68
2022/11/16 17:25:20;;;;;;;5.80;3.77;;;;;;;12.67;51.11;98294.34;10492453;28;20244;-69
2022/11/16 17:30:21;;;;;;;4.77;3.50;;;;;;;11.73;52.02;98330.66;10485647;28;20234;-68
2022/11/16 17:35:23;;;;;;;7.90;4.20;;;;;;;11.83;51.73;98313.22;10473024;28;20230;-70
2022/11/16 17:40:25;;;;;;;8.13;5.23;;;;;;;12.34;51.59;98274.25;10486085;28;20246;-69
2022/11/16 17:45:26;;;;;;;9.60;5.00;;;;;;;11.88;51.78;98307.97;10481561;28;20713;-70
2022/11/16 17:50:28;;;;;;;8.67;3.73;;;;;;;11.56;52.39;98294.81;10483422;28;20286;-71
2022/11/16 17:55:30;;;;;;;8.37;3.10;;;;;;;11.07;53.15;98268.84;10492554;28;20239;-71
2022/11/16 18:00:31;;;;;;;9.17;5.77;;;;;;;10.97;53.72;98275.78;10488984;28;20234;-72
2022/11/16 18:05:33;;;;;;;6.47;5.17;;;;;;;11.16;52.91;98255.97;10486356;28;20257;-74
2022/11/16 18:10:35;;;;;;;7.80;4.67;;;;;;;11.70;51.83;98239.22;10476707;28;20299;-72
2022/11/16 18:15:37;;;;;;;13.97;7.23;;;;;;;11.26;52.36;98242.88;10495030;28;20774;-72
2022/11/16 18:20:43;;;;;;;8.20;4.27;;;;;;;11.17;52.96;98232.69;10487124;28;20227;-73
2022/11/16 18:25:45;;;;;;;8.03;5.30;;;;;;;12.05;51.40;98203.59;10468948;28;20231;-75
2022/11/16 18:30:46;;;;;;;9.60;6.27;;;;;;;12.07;50.89;98186.22;10488784;28;20653;-72
2022/11/16 18:35:48;;;;;;;10.00;5.03;;;;;;;12.47;50.31;98203.47;10482176;28;20778;-73
2022/11/16 18:41:09;;;;;;;8.30;5.50;;;;;;;12.49;50.13;98202.19;10489088;28;20292;-72
2022/11/16 18:46:11;;;;;;;8.53;4.73;;;;;;;12.55;49.94;98206.63;10482162;28;20238;-71
2022/11/16 18:51:14;;;;;;;9.83;5.17;;;;;;;13.17;48.27;98189.03;10481050;28;20242;-71
2022/11/16 18:56:17;;;;;;;13.53;8.83;;;;;;;13.55;48.44;98219.03;10480944;28;20239;-71
2022/11/16 19:01:22;;;;;;;14.67;9.87;;;;;;;14.06;47.15;98179.56;10485686;28;20241;-74
2022/11/16 19:06:24;;;;;;;17.50;12.70;;;;;;;13.26;48.46;98243.19;10485342;28;20246;-72
2022/11/16 19:11:27;;;;;;;26.70;16.33;;;;;;;13.80;47.53;98207.88;10486341;28;20253;-72
2022/11/16 19:16:30;;;;;;;14.83;8.20;;;;;;;13.64;48.18;98244.47;10495846;28;20965;-72
2022/11/16 19:21:31;;;;;;;8.00;5.17;;;;;;;13.46;48.20;98259.75;10488701;28;20230;-71
2022/11/16 19:26:33;;;;;;;6.37;4.67;;;;;;;12.18;50.22;98275.75;10492008;28;20238;-72
2022/11/16 19:31:35;;;;;;;17.87;10.30;;;;;;;12.42;50.34;98275.75;10502240;28;20733;-72
2022/11/16 19:36:36;;;;;;;7.10;4.67;;;;;;;10.38;54.05;98195.09;10497221;28;20231;-71
2022/11/16 19:41:38;;;;;;;8.73;3.93;;;;;;;11.48;52.95;98204.88;10495444;28;20246;-68
2022/11/16 19:46:40;;;;;;;8.97;4.40;;;;;;;12.24;51.11;98153.34;10485378;28;20711;-69
2022/11/16 19:51:41;;;;;;;6.63;4.47;;;;;;;12.93;49.17;98143.50;10474181;28;20746;-69
2022/11/16 19:56:45;;;;;;;6.57;4.10;;;;;;;13.19;49.07;98156.56;10480439;28;20219;-70
2022/11/16 20:01:52;;;;;;;5.97;4.10;;;;;;;13.78;47.65;98140.91;10480771;28;20231;-72
2022/11/16 20:06:54;;;;;;;6.63;3.93;;;;;;;12.59;48.76;98200.78;10479103;28;20236;-69
2022/11/16 20:11:55;;;;;;;7.63;5.20;;;;;;;13.31;48.70;98169.97;10461049;28;20216;-70
2022/11/16 20:16:57;;;;;;;7.07;3.77;;;;;;;13.49;47.88;98167.06;10478219;28;20236;-70
2022/11/16 20:21:59;;;;;;;5.87;3.10;;;;;;;13.66;47.50;98159.81;10476065;28;21114;-69
2022/11/16 20:27:01;;;;;;;4.97;3.00;;;;;;;13.45;47.80;98172.13;10482863;28;20240;-73
2022/11/16 20:32:02;;;;;;;7.97;4.70;;;;;;;11.95;50.14;98198.81;10489114;28;20228;-69
2022/11/16 20:37:05;;;;;;;7.13;3.93;;;;;;;12.03;50.39;98209.19;10490196;28;20235;-71
2022/11/16 20:42:07;;;;;;;6.13;3.63;;;;;;;13.72;47.42;98128.47;10484637;28;20230;-69
2022/11/16 20:47:09;;;;;;;5.77;3.30;;;;;;;12.59;49.19;98177.47;10483049;28;20258;-73
2022/11/16 20:52:10;;;;;;;9.80;4.63;;;;;;;11.89;49.80;98159.53;10485698;28;20241;-69
2022/11/16 20:57:12;;;;;;;8.33;5.60;;;;;;;12.31;49.16;98167.44;10486105;28;20238;-69
2022/11/16 21:02:15;;;;;;;4.10;3.10;;;;;;;12.36;49.76;98152.25;10483162;28;20239;-68
2022/11/16 21:07:18;;;;;;;16.07;10.70;;;;;;;11.93;49.43;98150.78;10486367;28;20231;-68
2022/11/16 21:17:43;;;;;;;4.30;3.07;;;;;;;12.77;48.54;98136.19;10482645;28;20230;-71
2022/11/16 21:22:45;;;;;;;4.93;3.23;;;;;;;13.24;47.98;98133.28;10484467;28;20232;-69
2022/11/16 21:27:47;;;;;;;6.00;3.00;;;;;;;12.96;47.61;98122.59;10497076;28;20234;-68
2022/11/16 21:32:48;;;;;;;3.43;2.60;;;;;;;12.78;48.10;98140.53;10500407;28;20219;-68
2022/11/16 21:37:50;;;;;;;3.37;2.30;;;;;;;13.09;47.80;98122.28;10496508;28;20234;-71
2022/11/16 21:42:52;;;;;;;4.53;2.90;;;;;;;13.62;47.23;98109.50;10486320;28;20605;-73
2022/11/16 21:47:53;;;;;;;3.80;2.80;;;;;;;13.55;46.91;98111.53;10484637;28;20868;-69
2022/11/16 21:52:55;;;;;;;4.03;2.53;;;;;;;13.28;46.81;98101.44;10484137;28;20230;-69
2022/11/16 21:57:57;;;;;;;6.73;4.53;;;;;;;13.27;47.77;98115.91;10483518;28;20273;-69
2022/11/16 22:03:01;;;;;;;4.47;2.53;;;;;;;13.17;47.99;98115.72;10467706;28;20224;-71
2022/11/16 22:08:08;;;;;;;4.77;2.83;;;;;;;13.28;47.46;98099.56;10486867;28;20231;-70
2022/11/16 22:13:09;;;;;;;7.20;4.03;;;;;;;13.65;46.79;98076.78;10482031;28;20228;-74
2022/11/16 22:18:12;;;;;;;9.17;4.90;;;;;;;13.65;47.16;98088.34;10489822;28;20234;-72
2022/11/16 22:23:14;;;;;;;7.43;5.37;;;;;;;13.07;48.32;98097.56;10489048;28;20288;-74
2022/11/16 22:28:23;;;;;;;9.57;5.77;;;;;;;12.52;48.70;98089.06;10488706;28;20234;-73
2022/11/16 22:33:24;;;;;;;21.83;13.37;;;;;;;13.02;48.85;98079.47;10488262;28;20282;-72
2022/11/16 22:38:26;;;;;;;13.97;9.03;;;;;;;11.93;49.85;98050.78;10480815;28;20285;-72
2022/11/16 22:43:29;;;;;;;51.87;28.30;;;;;;;12.98;49.68;98008.53;10472734;28;20923;-72
2022/11/16 22:48:33;;;;;;;17.77;9.67;;;;;;;11.45;51.92;98021.31;10488021;28;20253;-73
2022/11/16 22:53:35;;;;;;;12.13;6.77;;;;;;;12.26;49.93;98022.50;10484498;28;20895;-72
2022/11/16 22:58:38;;;;;;;12.03;7.03;;;;;;;13.05;49.12;97968.09;10483672;28;20232;-73
2022/11/16 23:03:40;;;;;;;8.30;5.50;;;;;;;13.10;49.75;97968.19;10488794;28;20234;-72
2022/11/16 23:08:42;;;;;;;6.83;4.77;;;;;;;12.71;49.28;97974.28;10485205;28;20235;-72
2022/11/16 23:27:28;;;;;;;4.17;3.40;;;;;;;13.42;48.44;97938.06;10481265;28;20257;-72
2022/11/16 23:29:49;;;;;;;7.60;4.40;;;;;;;13.42;48.44;97927.31;10489832;28;20252;-76
2022/11/16 23:34:51;;;;;;;4.30;3.67;;;;;;;12.95;49.27;97951.84;10480560;28;20208;-72
2022/11/16 23:39:53;;;;;;;6.63;3.93;;;;;;;11.00;53.26;97890.75;10482899;28;20227;-73
2022/11/16 23:44:54;;;;;;;14.63;9.97;;;;;;;12.53;51.63;97912.78;10478801;28;20237;-73
2022/11/16 23:49:56;;;;;;;16.47;10.50;;;;;;;12.47;51.61;97922.63;10488940;28;20596;-71
2022/11/16 23:54:57;;;;;;;14.13;8.40;;;;;;;12.54;50.87;97915.22;10483247;28;20204;-74
2022/11/16 23:59:59;;;;;;;12.63;8.80;;;;;;;11.81;52.01;97882.81;10477749;28;20230;-74
